Aeroporto :
LOGIN :

Iscrizione | Disclaimer

   EN    FR    IT 

 










Sommario :    VFR   VFR Marginale   IFR   IFR Intensivo   IFR Molto Intensivo
Visibilità : 
Base nubi : 
>= 8 km
>= 3000ft
5 / 8 km
1000 / 3000 ft
1500m / 5 km
500 / 1000 ft
800 / 1500m
200 / 500 ft
< 800m
< 200 ft
Simboli :   Temporali  Nebbia  Neve Forte  Precipitazioni Forti  Vento > 20 kt
SIGMETs :   Varie  Temporali  Ghiacco  Turbolenza  Onda orograficha  Ceneri Vulcaniche






- Altitudine del aeroporto : 791 ft
- Codice IATA : KRK


EPKK - Krakow-Balice

ULTIMO METAR :
  • 012100Z 30002KT CAVOK M02/M08 Q1016

METARs OBSOLETI :
  • 012030Z 26002KT CAVOK M01/M08 Q1016
  • 012000Z 26003KT CAVOK M01/M08 Q1016
  • 011930Z 25003KT CAVOK 00/M08 Q1017
  • 011900Z 24004KT CAVOK 02/M08 Q1017
  • 011830Z 22004KT CAVOK 04/M09 Q1017

TAF TAF EPKK
Valido dal 01 a 21 ore il 02 a 21 ore UTC


012030Z 0121/0221 26003KT CAVOK
BECMG 0207/0209 26013KT
TEMPO 0209/0215 26015G25KT



MetMap, La meteo Aeronautica in un colpo d'occhio ! - Copyright ORBIFLY Dicembre 2007 - Disclaimer

ORBIFLY MET'MAP TEAM :

Programmazione e sviluppo : Alexandra Zaïnal
Concezione : Baudouin d'Aumeries
Aiuto per la programmazione : Marc-Olivier Méhu
Supporto tecnico e logistico : Manuel Goepfert
Aiuto per la traduzione : Arnaldo La Scala

Contatto : metmap@orbifly.com




FONTI E CREDITI :

   NOAA